Time;durP1;ratioP1;P1;durP2;ratioP2;P2;SDS_P1;SDS_P2;PMS_P1;PMS_P2;Temp;Humidity;BMP_temperature;BMP_pressure;BME280_temperature;BME280_humidity;BME280_pressure;Samples;Min_cycle;Max_cycle;Signal;HPM_P1;HPM_P2
2022/06/07 00:02:11;;;;;;;0.53;0.50;;;;;;;15.22;69.37;100564.72;5052850;28;20256;-71
2022/06/07 00:04:39;;;;;;;1.13;0.50;;;;;;;15.24;69.83;100557.63;5052234;28;20760;-71
2022/06/07 00:07:06;;;;;;;1.40;0.70;;;;;;;15.21;69.75;100544.56;5044869;28;20198;-71
2022/06/07 00:09:32;;;;;;;0.60;0.60;;;;;;;15.23;68.36;100568.19;5052278;28;20223;-71
2022/06/07 00:12:00;;;;;;;0.70;0.70;;;;;;;15.20;69.53;100584.06;5052034;28;20207;-71
2022/06/07 00:14:26;;;;;;;0.70;0.40;;;;;;;15.21;69.00;100562.13;5052569;28;20218;-71
2022/06/07 00:16:55;;;;;;;0.80;0.60;;;;;;;15.19;69.31;100548.19;5051990;28;20285;-71
2022/06/07 00:19:21;;;;;;;0.90;0.40;;;;;;;15.12;69.44;100531.75;5051646;28;20286;-71
2022/06/07 00:21:48;;;;;;;0.30;0.30;;;;;;;15.09;69.26;100540.63;5052275;28;20638;-71
2022/06/07 00:24:14;;;;;;;0.37;0.37;;;;;;;15.10;69.19;100536.22;5052074;28;20204;-71
2022/06/07 00:26:42;;;;;;;1.23;0.50;;;;;;;15.07;69.38;100536.34;5052405;28;20556;-71
2022/06/07 00:29:09;;;;;;;0.90;0.40;;;;;;;15.07;68.93;100537.19;5051066;28;20337;-71
2022/06/07 00:31:38;;;;;;;0.50;0.40;;;;;;;15.05;68.71;100552.16;5052397;28;20257;-72
2022/06/07 00:34:06;;;;;;;1.60;0.50;;;;;;;14.94;68.80;100546.41;5052089;28;20202;-72
2022/06/07 00:36:33;;;;;;;0.40;0.40;;;;;;;14.88;69.87;100530.88;5052219;28;20200;-72
2022/06/07 00:38:59;;;;;;;0.50;0.50;;;;;;;14.92;68.20;100531.63;5051535;28;20199;-71
2022/06/07 00:41:26;;;;;;;0.60;0.60;;;;;;;14.94;68.97;100553.44;5052005;28;20213;-72
2022/06/07 00:44:22;;;;;;;1.50;0.53;;;;;;;14.93;68.37;100543.88;5051984;28;20194;-71
2022/06/07 00:46:49;;;;;;;1.00;0.43;;;;;;;14.92;69.10;100542.13;5047415;28;20254;-72
2022/06/07 00:49:18;;;;;;;0.93;0.60;;;;;;;14.93;68.26;100542.09;5051571;28;20222;-72
2022/06/07 00:51:45;;;;;;;2.93;0.70;;;;;;;14.94;68.98;100535.91;5051604;28;20258;-71
2022/06/07 00:54:18;;;;;;;0.70;0.40;;;;;;;14.90;68.46;100534.28;5051699;28;20211;-71
2022/06/07 00:56:44;;;;;;;0.57;0.50;;;;;;;14.85;69.01;100544.97;5051862;28;20192;-71
2022/06/07 00:59:11;;;;;;;0.57;0.43;;;;;;;14.85;68.96;100534.47;5050884;28;20619;-71
2022/06/07 01:01:37;;;;;;;1.13;0.50;;;;;;;14.78;69.06;100532.94;5051469;28;20248;-71
2022/06/07 01:04:04;;;;;;;1.07;0.80;;;;;;;14.78;68.78;100527.69;5051703;28;20200;-71
2022/06/07 01:12:00;;;;;;;0.70;0.50;;;;;;;14.75;69.24;100521.72;5051402;28;20287;-71
2022/06/07 01:14:26;;;;;;;0.60;0.40;;;;;;;14.70;69.29;100527.13;5051598;28;20281;-71
2022/06/07 01:16:53;;;;;;;0.50;0.50;;;;;;;14.65;69.30;100526.44;5051227;28;20607;-71
2022/06/07 01:19:19;;;;;;;1.10;0.50;;;;;;;14.69;69.32;100517.53;5050681;28;20657;-71
2022/06/07 01:21:47;;;;;;;1.67;0.70;;;;;;;14.64;68.89;100520.28;5051735;28;20199;-71
2022/06/07 01:24:15;;;;;;;0.60;0.60;;;;;;;14.62;68.72;100514.22;5060034;28;20205;-71
2022/06/07 01:26:41;;;;;;;1.13;0.50;;;;;;;14.59;68.16;100532.75;5051464;28;20202;-71
2022/06/07 01:29:08;;;;;;;0.60;0.47;;;;;;;14.63;68.61;100533.50;5054822;28;20282;-71
2022/06/07 01:31:35;;;;;;;0.90;0.77;;;;;;;14.56;68.88;100524.97;5054031;28;20598;-71
2022/06/07 01:34:02;;;;;;;0.70;0.60;;;;;;;14.57;69.33;100524.06;5055887;28;20199;-71
2022/06/07 01:36:29;;;;;;;0.60;0.60;;;;;;;14.58;69.14;100509.16;5055338;28;20230;-71
2022/06/07 01:41:56;;;;;;;0.93;0.93;;;;;;;14.53;68.87;100526.78;5055028;28;20243;-71
2022/06/07 01:44:24;;;;;;;1.43;0.50;;;;;;;14.52;68.72;100514.59;5054957;28;20241;-72
2022/06/07 01:46:50;;;;;;;0.70;0.70;;;;;;;14.49;68.97;100508.53;5055437;28;20203;-71
2022/06/07 01:49:18;;;;;;;0.70;0.70;;;;;;;14.52;69.06;100504.06;5054544;28;20218;-71
2022/06/07 01:51:44;;;;;;;0.80;0.70;;;;;;;14.52;69.24;100504.94;5054784;28;20198;-71
2022/06/07 01:54:14;;;;;;;0.57;0.50;;;;;;;14.44;69.05;100504.34;5054940;28;20211;-71
2022/06/07 01:56:41;;;;;;;0.57;0.53;;;;;;;14.40;69.66;100489.59;5055011;28;20203;-71
2022/06/07 01:59:08;;;;;;;1.23;0.60;;;;;;;14.43;68.99;100487.72;5054651;28;20202;-71
2022/06/07 02:01:35;;;;;;;0.50;0.50;;;;;;;14.36;69.36;100490.59;5055456;28;20202;-72
2022/06/07 02:04:01;;;;;;;1.63;0.77;;;;;;;14.44;70.12;100475.44;5055212;28;20198;-71
2022/06/07 02:06:28;;;;;;;0.80;0.80;;;;;;;14.45;69.64;100469.31;5054751;28;20275;-71
2022/06/07 02:08:54;;;;;;;0.70;0.70;;;;;;;14.44;70.05;100467.56;5054356;28;20277;-71
2022/06/07 02:11:24;;;;;;;0.93;0.50;;;;;;;14.41;70.67;100459.78;5054550;28;20197;-71
2022/06/07 02:13:52;;;;;;;0.60;0.60;;;;;;;14.40;70.92;100447.56;5046995;28;20206;-71
2022/06/07 02:16:20;;;;;;;0.70;0.70;;;;;;;14.37;70.88;100452.91;5054963;28;20314;-71
2022/06/07 02:18:47;;;;;;;0.83;0.70;;;;;;;14.37;71.32;100437.16;5053796;28;20974;-71
2022/06/07 02:21:15;;;;;;;0.90;0.70;;;;;;;14.36;71.05;100435.47;5054573;28;20206;-71
2022/06/07 02:23:42;;;;;;;0.83;0.83;;;;;;;14.36;71.02;100436.31;5054585;28;20198;-71
2022/06/07 02:26:14;;;;;;;0.83;0.70;;;;;;;14.40;72.01;100423.94;5054714;28;20228;-71
2022/06/07 02:28:45;;;;;;;1.80;1.27;;;;;;;14.39;70.48;100435.34;5053930;28;20234;-72
2022/06/07 02:31:11;;;;;;;0.80;0.80;;;;;;;14.43;70.81;100450.97;5054500;28;20210;-71
2022/06/07 02:33:40;;;;;;;1.03;1.00;;;;;;;14.40;70.84;100427.41;5054185;28;20211;-71
2022/06/07 02:36:09;;;;;;;1.83;1.00;;;;;;;14.43;72.13;100415.94;5054074;28;20271;-72
2022/06/07 02:38:36;;;;;;;1.00;0.90;;;;;;;14.44;72.14;100397.50;5054186;28;20194;-71
2022/06/07 02:41:05;;;;;;;1.17;1.07;;;;;;;14.41;70.96;100417.75;5054218;28;20195;-71
2022/06/07 02:43:32;;;;;;;1.97;0.97;;;;;;;14.45;71.61;100417.63;5053939;28;20244;-71
2022/06/07 02:46:00;;;;;;;0.70;0.70;;;;;;;14.44;71.83;100396.66;5054015;28;20218;-71
2022/06/07 02:48:27;;;;;;;1.33;1.23;;;;;;;14.41;72.29;100379.25;5053894;28;20699;-71
2022/06/07 02:50:53;;;;;;;1.10;1.10;;;;;;;14.37;71.55;100392.53;5053633;28;20198;-71
2022/06/07 02:53:20;;;;;;;1.90;1.33;;;;;;;14.46;71.75;100410.59;5054303;28;20203;-71
2022/06/07 02:55:47;;;;;;;1.20;1.10;;;;;;;14.46;71.27;100408.81;5053679;28;20222;-71
2022/06/07 02:58:13;;;;;;;1.30;1.20;;;;;;;14.47;70.70;100423.69;5053792;28;20207;-71
2022/06/07 03:00:40;;;;;;;1.20;1.20;;;;;;;14.51;70.81;100427.06;5053521;28;20222;-71
2022/06/07 03:03:07;;;;;;;1.83;1.33;;;;;;;14.53;70.27;100422.59;5053903;28;20201;-71
2022/06/07 03:05:34;;;;;;;1.40;1.30;;;;;;;14.55;70.71;100420.78;5053355;28;20219;-71
2022/06/07 03:08:00;;;;;;;1.73;1.63;;;;;;;14.53;70.73;100398.09;5053785;28;20203;-71
2022/06/07 03:10:27;;;;;;;1.60;1.50;;;;;;;14.52;71.39;100413.00;5053441;28;20635;-71
2022/06/07 03:12:54;;;;;;;1.70;1.30;;;;;;;14.47;72.19;100388.69;5053107;28;20554;-71
2022/06/07 03:15:20;;;;;;;2.27;1.30;;;;;;;14.56;71.79;100395.34;5053720;28;20227;-71
2022/06/07 03:17:47;;;;;;;1.53;1.40;;;;;;;14.60;71.78;100410.13;5053246;28;20296;-71
2022/06/07 03:20:15;;;;;;;1.57;1.37;;;;;;;14.62;71.00;100403.06;5053438;28;20253;-71
2022/06/07 03:22:42;;;;;;;1.97;1.40;;;;;;;14.60;71.31;100408.34;5053762;28;20645;-71
2022/06/07 03:25:11;;;;;;;1.13;1.03;;;;;;;14.62;71.59;100406.53;5053555;28;20266;-71
2022/06/07 03:27:39;;;;;;;1.63;1.23;;;;;;;14.62;71.54;100403.06;5052868;28;20205;-71
2022/06/07 03:30:09;;;;;;;1.77;1.13;;;;;;;14.63;72.12;100375.88;5052952;28;20235;-71
2022/06/07 03:32:36;;;;;;;1.27;1.17;;;;;;;14.61;71.82;100381.19;5053354;28;20198;-71
2022/06/07 03:35:03;;;;;;;2.07;1.33;;;;;;;14.65;72.68;100364.38;5052876;28;20227;-71
2022/06/07 03:37:31;;;;;;;1.40;1.30;;;;;;;14.65;72.19;100351.25;5053143;28;20290;-71
2022/06/07 03:39:58;;;;;;;1.60;1.50;;;;;;;14.60;72.67;100350.56;5052310;28;20205;-71
2022/06/07 03:42:24;;;;;;;1.47;1.37;;;;;;;14.66;72.86;100328.47;5052923;28;20244;-71
2022/06/07 03:44:51;;;;;;;1.63;1.53;;;;;;;14.63;72.15;100347.81;5052801;28;20648;-71
2022/06/07 03:47:18;;;;;;;1.30;1.20;;;;;;;14.62;72.23;100369.75;5053075;28;20202;-71
2022/06/07 03:49:46;;;;;;;2.20;1.63;;;;;;;14.66;71.72;100362.63;5051980;28;20219;-71
2022/06/07 03:52:12;;;;;;;1.40;1.30;;;;;;;14.64;72.21;100361.81;5044615;28;20201;-71
2022/06/07 03:54:40;;;;;;;1.50;1.33;;;;;;;14.62;71.33;100363.63;5052571;28;20252;-71
2022/06/07 03:57:07;;;;;;;2.40;1.30;;;;;;;14.63;72.87;100345.19;5052397;28;20214;-71
2022/06/07 03:59:34;;;;;;;1.87;1.30;;;;;;;14.67;72.77;100344.16;5052037;28;20883;-71
2022/06/07 04:02:01;;;;;;;1.97;1.10;;;;;;;14.69;72.06;100352.84;5052636;28;20223;-71
2022/06/07 04:04:28;;;;;;;1.50;1.40;;;;;;;14.68;71.67;100355.53;5052719;28;20702;-71
2022/06/07 04:09:40;;;;;;;1.40;1.30;;;;;;;14.67;72.69;100349.44;5035672;28;20210;-71
2022/06/07 04:12:07;;;;;;;1.47;1.37;;;;;;;14.64;72.49;100351.31;5052037;28;20241;-71
2022/06/07 04:14:34;;;;;;;1.37;1.27;;;;;;;14.62;71.90;100353.97;5052095;28;20274;-71
2022/06/07 04:17:00;;;;;;;1.43;1.30;;;;;;;14.61;72.72;100348.81;5051968;28;20665;-71
2022/06/07 04:19:27;;;;;;;5.10;1.40;;;;;;;14.64;72.34;100335.53;5051685;28;20234;-71
2022/06/07 04:21:53;;;;;;;1.60;1.50;;;;;;;14.63;72.85;100345.19;5048733;28;20260;-71
2022/06/07 04:24:20;;;;;;;1.93;1.27;;;;;;;14.69;72.22;100352.84;5046258;28;20208;-71
2022/06/07 04:26:47;;;;;;;1.80;1.67;;;;;;;14.73;72.12;100353.59;5040946;28;20261;-71
2022/06/07 04:29:14;;;;;;;1.80;1.27;;;;;;;14.72;72.20;100353.66;5042955;28;20230;-71
2022/06/07 04:31:41;;;;;;;2.40;1.53;;;;;;;14.73;72.94;100344.84;5048044;28;20222;-71
2022/06/07 04:34:07;;;;;;;1.37;1.33;;;;;;;14.77;72.95;100320.19;5038139;28;20595;-71
2022/06/07 04:36:36;;;;;;;2.23;1.60;;;;;;;14.79;73.22;100329.72;5039868;28;20684;-71
2022/06/07 04:39:05;;;;;;;1.57;1.30;;;;;;;14.86;73.55;100325.91;5042588;28;20257;-71
2022/06/07 04:41:32;;;;;;;2.10;1.53;;;;;;;14.91;72.42;100338.91;5038527;28;20262;-71
2022/06/07 04:44:00;;;;;;;1.80;1.30;;;;;;;14.91;73.12;100325.75;5038381;28;20202;-71
2022/06/07 04:46:28;;;;;;;1.83;1.30;;;;;;;14.95;72.30;100332.59;5044670;28;20696;-71
2022/06/07 04:48:55;;;;;;;4.23;1.60;;;;;;;15.04;72.23;100337.53;5043866;28;20229;-71
2022/06/07 04:51:24;;;;;;;1.50;1.40;;;;;;;15.05;72.25;100323.44;5045172;28;20214;-71
2022/06/07 04:53:52;;;;;;;1.93;1.27;;;;;;;15.15;72.08;100344.13;5044312;28;20234;-71
2022/06/07 04:56:21;;;;;;;1.90;1.40;;;;;;;15.24;71.94;100339.34;5044045;28;20231;-71
2022/06/07 04:58:48;;;;;;;1.83;1.53;;;;;;;15.27;71.39;100352.38;5042065;28;20194;-71
2022/06/07 05:01:18;;;;;;;2.03;1.40;;;;;;;15.30;72.20;100351.38;5049375;28;20700;-71
2022/06/07 05:03:44;;;;;;;2.90;1.70;;;;;;;15.37;71.19;100359.91;5043556;28;20624;-71
2022/06/07 05:06:19;;;;;;;2.47;1.63;;;;;;;15.44;71.09;100378.00;5043088;28;20715;-71
2022/06/07 05:08:45;;;;;;;2.97;1.60;;;;;;;15.50;70.95;100382.19;5043679;28;20731;-71
2022/06/07 05:11:12;;;;;;;2.53;1.20;;;;;;;15.54;70.13;100396.91;5041707;28;20372;-71
2022/06/07 05:13:38;;;;;;;2.67;1.60;;;;;;;15.51;70.25;100406.69;5041063;28;20207;-71
2022/06/07 05:16:05;;;;;;;1.63;1.53;;;;;;;15.60;70.19;100409.81;5043784;28;20224;-71
2022/06/07 05:18:33;;;;;;;2.33;1.43;;;;;;;15.69;70.56;100411.22;5043900;28;20252;-71
2022/06/07 05:21:01;;;;;;;2.50;1.60;;;;;;;15.65;69.96;100417.53;5041214;28;20204;-71
2022/06/07 05:23:27;;;;;;;1.70;1.60;;;;;;;15.67;69.97;100419.16;5041998;28;20670;-71
2022/06/07 05:25:57;;;;;;;2.63;1.30;;;;;;;15.74;69.65;100427.72;5040591;28;20262;-72
2022/06/07 05:28:24;;;;;;;2.17;1.93;;;;;;;15.85;69.70;100422.84;5041935;28;20200;-72
2022/06/07 05:30:51;;;;;;;3.63;1.60;;;;;;;15.85;68.26;100457.06;5047500;28;20222;-71
2022/06/07 05:33:17;;;;;;;2.00;1.80;;;;;;;15.79;67.51;100473.13;5043224;28;20200;-71
2022/06/07 05:35:45;;;;;;;1.83;1.50;;;;;;;15.87;67.84;100478.91;5039063;28;20634;-71
2022/06/07 05:38:12;;;;;;;2.30;1.33;;;;;;;15.94;67.31;100490.09;5041715;28;20547;-71
2022/06/07 05:40:39;;;;;;;4.77;1.33;;;;;;;15.99;67.35;100500.41;5038433;28;20222;-72
2022/06/07 05:43:05;;;;;;;3.60;1.67;;;;;;;16.02;68.30;100489.78;5040198;28;20215;-72
2022/06/07 05:45:32;;;;;;;1.60;1.50;;;;;;;16.05;67.37;100476.47;5038516;28;20231;-72
2022/06/07 05:47:58;;;;;;;1.97;1.30;;;;;;;16.09;67.09;100491.22;5040350;28;20675;-72
2022/06/07 05:50:25;;;;;;;1.33;1.23;;;;;;;16.13;67.00;100507.75;5041320;28;20228;-72
2022/06/07 05:52:53;;;;;;;1.33;1.23;;;;;;;16.05;67.42;100505.44;5037935;28;20203;-72
2022/06/07 05:55:20;;;;;;;1.77;1.67;;;;;;;16.14;67.39;100489.25;5042098;28;20652;-72
2022/06/07 05:57:50;;;;;;;1.63;1.53;;;;;;;16.24;67.20;100495.00;5044232;28;20693;-72
2022/06/07 06:00:18;;;;;;;1.83;1.37;;;;;;;16.22;66.73;100518.78;5044847;28;20276;-72
2022/06/07 06:02:45;;;;;;;1.70;1.60;;;;;;;16.24;66.73;100519.56;5044075;28;20203;-71
2022/06/07 06:05:11;;;;;;;1.53;1.43;;;;;;;16.24;66.33;100516.94;5045209;28;20618;-72
2022/06/07 06:10:19;;;;;;;1.60;1.43;;;;;;;16.23;66.87;100527.53;5050994;28;20203;-71
2022/06/07 06:10:25;;;;;;;2.63;1.50;;;;;;;16.27;66.42;100529.09;5050085;28;20215;-72
2022/06/07 06:12:51;;;;;;;2.30;1.60;;;;;;;16.23;66.34;100531.03;5050552;28;20234;-73
2022/06/07 06:15:19;;;;;;;1.83;1.67;;;;;;;16.31;66.29;100524.56;5054381;28;20692;-74
2022/06/07 06:17:45;;;;;;;1.77;1.63;;;;;;;16.44;66.25;100521.38;5054412;28;20682;-73
2022/06/07 06:20:13;;;;;;;4.90;1.30;;;;;;;16.49;65.71;100518.56;5054050;28;20255;-73
2022/06/07 06:22:40;;;;;;;2.37;1.40;;;;;;;16.54;65.83;100529.75;5054773;28;20254;-72
2022/06/07 06:25:08;;;;;;;4.00;1.40;;;;;;;16.59;65.74;100533.06;5048089;28;20247;-73
2022/06/07 06:27:37;;;;;;;2.63;1.77;;;;;;;16.67;65.43;100545.91;5054128;28;20247;-72
2022/06/07 06:30:04;;;;;;;2.07;1.30;;;;;;;16.68;64.41;100563.44;5053751;28;20589;-72
2022/06/07 06:32:30;;;;;;;1.60;1.50;;;;;;;16.69;64.22;100573.06;5054266;28;20255;-72
2022/06/07 06:34:57;;;;;;;1.87;1.30;;;;;;;16.65;64.50;100584.66;5053962;28;20227;-72
2022/06/07 06:37:25;;;;;;;1.20;1.10;;;;;;;16.69;63.94;100588.88;5053991;28;20283;-73
2022/06/07 06:39:51;;;;;;;2.73;1.47;;;;;;;16.71;63.11;100608.13;5054141;28;20254;-73
2022/06/07 06:42:18;;;;;;;2.87;1.40;;;;;;;16.77;64.11;100602.59;5053580;28;20211;-72
2022/06/07 06:44:46;;;;;;;1.60;1.20;;;;;;;16.81;63.32;100598.06;5053922;28;20630;-73
2022/06/07 06:47:13;;;;;;;2.30;1.60;;;;;;;16.82;62.57;100619.09;5053902;28;20225;-72
2022/06/07 06:49:41;;;;;;;2.83;1.70;;;;;;;16.94;63.53;100611.59;5053846;28;20210;-72
2022/06/07 06:52:07;;;;;;;1.50;1.13;;;;;;;17.00;62.36;100621.88;5053637;28;20234;-72
2022/06/07 06:54:34;;;;;;;3.60;1.27;;;;;;;17.05;61.98;100627.81;5052942;28;20224;-72
2022/06/07 06:57:01;;;;;;;3.93;1.10;;;;;;;16.87;59.91;100690.09;5054056;28;20232;-72
2022/06/07 06:59:27;;;;;;;1.73;1.47;;;;;;;16.94;59.72;100709.16;5052884;28;20267;-72
2022/06/07 07:01:55;;;;;;;1.73;1.10;;;;;;;17.01;58.75;100713.28;5053732;28;20670;-72
2022/06/07 07:04:22;;;;;;;1.10;0.90;;;;;;;16.98;57.85;100758.22;5053604;28;20205;-72
2022/06/07 07:06:49;;;;;;;2.37;1.17;;;;;;;16.93;58.09;100797.97;5053726;28;20196;-72
2022/06/07 07:09:19;;;;;;;1.77;1.10;;;;;;;17.06;58.25;100779.84;5053340;28;20239;-72
2022/06/07 07:11:47;;;;;;;1.20;1.10;;;;;;;17.18;59.28;100773.22;5053149;28;20718;-72
2022/06/07 07:14:14;;;;;;;1.00;1.00;;;;;;;17.26;58.93;100768.47;5053288;28;20258;-72
2022/06/07 07:16:44;;;;;;;1.83;1.03;;;;;;;17.35;59.28;100754.91;5053317;28;20218;-72
2022/06/07 07:19:13;;;;;;;1.27;1.00;;;;;;;17.42;59.18;100763.44;5053073;28;20655;-72
2022/06/07 07:21:45;;;;;;;1.63;1.10;;;;;;;17.36;56.86;100775.13;5052753;28;20720;-73
2022/06/07 07:24:15;;;;;;;1.93;1.03;;;;;;;17.46;57.61;100802.84;5053253;28;20193;-72
2022/06/07 07:26:43;;;;;;;2.90;1.10;;;;;;;17.36;56.14;100822.63;5052694;28;20213;-72
2022/06/07 07:29:11;;;;;;;1.03;0.93;;;;;;;17.34;56.91;100826.22;5044645;28;20202;-72
2022/06/07 07:31:38;;;;;;;1.33;1.07;;;;;;;17.41;57.00;100806.59;5052985;28;20278;-73
2022/06/07 07:34:08;;;;;;;2.47;1.60;;;;;;;17.48;57.51;100808.03;5053123;28;20200;-73
2022/06/07 07:36:38;;;;;;;1.57;1.07;;;;;;;17.61;57.41;100780.19;5052974;28;20199;-72
2022/06/07 07:39:05;;;;;;;1.57;1.00;;;;;;;17.63;57.62;100799.47;5052487;28;20661;-72
2022/06/07 07:41:35;;;;;;;2.10;1.07;;;;;;;17.72;57.32;100789.44;5053029;28;20208;-72
2022/06/07 07:44:03;;;;;;;1.40;1.30;;;;;;;17.77;56.60;100783.03;5052674;28;20631;-73
2022/06/07 07:46:32;;;;;;;1.50;1.07;;;;;;;17.71;55.85;100814.13;5053107;28;20281;-73
2022/06/07 07:48:59;;;;;;;2.07;1.40;;;;;;;17.78;56.53;100820.84;5052529;28;20208;-72
2022/06/07 07:51:27;;;;;;;2.07;1.10;;;;;;;17.75;55.08;100815.72;5052690;28;20275;-72
2022/06/07 07:53:57;;;;;;;1.37;1.00;;;;;;;17.65;54.29;100852.22;5052889;28;20199;-72
2022/06/07 07:56:25;;;;;;;0.80;0.80;;;;;;;17.78;55.12;100864.00;5052737;28;20276;-73
2022/06/07 07:58:54;;;;;;;1.43;1.00;;;;;;;17.80;55.72;100885.03;5052219;28;20287;-72
2022/06/07 08:01:23;;;;;;;1.60;1.00;;;;;;;17.86;54.90;100868.97;5052599;28;20200;-73
2022/06/07 08:03:49;;;;;;;1.40;1.10;;;;;;;17.90;55.29;100848.56;5045539;28;20200;-72
2022/06/07 08:06:18;;;;;;;1.87;1.30;;;;;;;17.82;54.73;100852.38;5052610;28;20708;-72
2022/06/07 08:08:46;;;;;;;1.10;1.00;;;;;;;17.94;55.82;100864.22;5052021;28;20223;-73
2022/06/07 08:11:15;;;;;;;1.33;1.07;;;;;;;17.97;54.17;100839.44;5052556;28;20331;-73
2022/06/07 08:13:43;;;;;;;1.70;1.10;;;;;;;18.02;53.05;100853.34;5052066;28;20209;-73
2022/06/07 08:16:10;;;;;;;1.40;1.00;;;;;;;18.09;53.25;100885.63;5052411;28;20229;-73
2022/06/07 08:18:37;;;;;;;1.57;0.90;;;;;;;18.15;53.70;100899.41;5052033;28;20270;-72
2022/06/07 08:21:06;;;;;;;15.97;1.53;;;;;;;18.22;52.98;100892.94;5044620;28;20192;-72
2022/06/07 08:23:33;;;;;;;0.97;0.70;;;;;;;18.24;51.92;100892.88;5052194;28;20693;-73
2022/06/07 08:26:01;;;;;;;1.90;0.80;;;;;;;18.37;52.98;100927.56;5051980;28;20255;-72
2022/06/07 08:28:29;;;;;;;1.20;1.00;;;;;;;18.36;50.89;100953.13;5051806;28;20254;-73
2022/06/07 08:30:55;;;;;;;1.73;1.20;;;;;;;18.36;50.34;100979.56;5051959;28;20626;-73
2022/06/07 08:38:54;;;;;;;0.97;0.97;;;;;;;18.48;49.07;100951.75;5051351;28;20249;-73
2022/06/07 08:41:24;;;;;;;0.97;0.90;;;;;;;18.52;49.29;101039.72;5043966;28;20209;-73
2022/06/07 08:43:52;;;;;;;2.23;1.10;;;;;;;18.61;49.56;101028.72;5051780;28;20281;-72
2022/06/07 08:46:24;;;;;;;0.90;0.70;;;;;;;18.71;49.06;101013.34;5051772;28;20229;-73
2022/06/07 08:48:50;;;;;;;0.93;0.70;;;;;;;18.74;48.78;101029.09;5051315;28;20251;-73
2022/06/07 08:51:22;;;;;;;0.80;0.80;;;;;;;18.80;48.58;101042.91;5051460;28;20301;-73
2022/06/07 08:53:52;;;;;;;1.73;0.80;;;;;;;18.87;48.56;101048.81;5052417;28;20190;-73
2022/06/07 08:56:22;;;;;;;0.60;0.60;;;;;;;18.91;47.87;101057.47;5051427;28;20281;-73
2022/06/07 08:58:52;;;;;;;2.20;0.70;;;;;;;19.00;48.44;101047.31;5051507;28;20200;-72
2022/06/07 09:01:28;;;;;;;1.23;0.60;;;;;;;19.03;46.16;101028.69;5049070;28;20228;-72
2022/06/07 09:04:05;;;;;;;2.73;0.83;;;;;;;19.03;46.15;101071.03;5051688;28;20224;-73
2022/06/07 09:06:35;;;;;;;1.00;0.70;;;;;;;19.22;47.10;101078.13;5051285;28;20278;-73
2022/06/07 09:09:02;;;;;;;1.20;0.80;;;;;;;19.25;47.84;101083.31;5050980;28;20446;-73
2022/06/07 09:14:26;;;;;;;2.27;0.73;;;;;;;19.30;46.69;101049.53;5050950;28;20414;-73
2022/06/07 09:16:55;;;;;;;0.83;0.73;;;;;;;19.38;46.59;101050.03;5051506;28;20204;-73
2022/06/07 09:19:25;;;;;;;1.43;0.70;;;;;;;19.50;46.50;101061.84;5050890;28;20300;-73
2022/06/07 09:21:54;;;;;;;1.37;0.77;;;;;;;19.46;46.34;101047.03;5051661;28;20192;-73
2022/06/07 09:24:27;;;;;;;2.73;0.87;;;;;;;19.58;48.32;101074.72;5043350;28;20204;-73
2022/06/07 09:27:05;;;;;;;1.17;1.07;;;;;;;19.57;45.87;101001.53;5039897;28;20212;-73
2022/06/07 09:29:42;;;;;;;0.70;0.67;;;;;;;19.69;47.58;101068.94;5046339;28;20200;-73
2022/06/07 09:32:20;;;;;;;0.93;0.70;;;;;;;19.72;46.92;101067.06;5051286;28;20216;-73
2022/06/07 09:34:56;;;;;;;0.93;0.87;;;;;;;19.78;45.99;101056.16;5049390;28;20220;-73
2022/06/07 09:37:28;;;;;;;0.70;0.70;;;;;;;19.81;45.10;101048.06;5051436;28;20219;-73
2022/06/07 09:40:01;;;;;;;1.43;0.60;;;;;;;19.82;45.51;101099.25;5050586;28;20201;-73
2022/06/07 09:42:30;;;;;;;1.80;0.70;;;;;;;19.90;45.63;101053.84;5050961;28;20204;-73
2022/06/07 09:45:00;;;;;;;0.60;0.60;;;;;;;19.95;44.81;101062.44;5050861;28;20220;-73
2022/06/07 09:47:28;;;;;;;0.83;0.60;;;;;;;20.07;44.81;101119.31;5051422;28;20278;-73
2022/06/07 09:49:57;;;;;;;0.93;0.80;;;;;;;20.18;43.76;101058.69;5054203;28;20216;-73
2022/06/07 09:52:26;;;;;;;3.97;0.60;;;;;;;20.18;43.07;101083.41;5055383;28;20234;-73
2022/06/07 09:54:57;;;;;;;1.43;0.70;;;;;;;20.18;43.48;101127.59;5054919;28;20247;-73
2022/06/07 09:57:35;;;;;;;2.10;0.90;;;;;;;20.19;43.60;101142.56;5054983;28;20264;-74
2022/06/07 10:00:17;;;;;;;0.90;0.73;;;;;;;20.29;43.21;101164.19;5054370;28;20702;-73
2022/06/07 10:03:00;;;;;;;1.37;0.70;;;;;;;20.49;42.95;101157.94;5054988;28;20667;-73
2022/06/07 10:05:31;;;;;;;0.77;0.60;;;;;;;20.68;43.44;101118.97;5054779;28;20310;-73
2022/06/07 10:08:05;;;;;;;1.07;0.70;;;;;;;20.83;42.79;101147.41;5055211;28;20201;-74
2022/06/07 10:10:38;;;;;;;0.67;0.60;;;;;;;20.95;41.99;101155.66;5054680;28;20288;-74
2022/06/07 10:13:17;;;;;;;0.70;0.50;;;;;;;20.95;40.98;101148.56;5054529;28;20288;-74
2022/06/07 10:15:50;;;;;;;1.23;0.80;;;;;;;20.91;40.37;101189.47;5054595;28;20216;-74
2022/06/07 10:18:31;;;;;;;1.67;0.70;;;;;;;20.96;41.51;101218.44;5046742;28;20197;-74
2022/06/07 10:21:16;;;;;;;2.20;0.90;;;;;;;21.09;41.30;101216.00;5052567;28;20199;-74
2022/06/07 10:24:12;;;;;;;1.60;0.40;;;;;;;20.99;39.13;101212.94;5054646;28;20260;-75
2022/06/07 10:26:51;;;;;;;1.47;0.60;;;;;;;20.97;40.23;101241.38;5049609;28;20256;-75
2022/06/07 10:29:31;;;;;;;0.70;0.50;;;;;;;21.15;39.95;101227.19;5046412;28;20232;-77
2022/06/07 10:32:06;;;;;;;2.43;0.50;;;;;;;21.29;39.41;101191.97;5052419;28;20216;-77
2022/06/07 10:34:38;;;;;;;1.23;0.77;;;;;;;21.39;38.90;101222.41;5054035;28;20223;-77
2022/06/07 10:37:17;;;;;;;1.33;0.77;;;;;;;21.43;39.94;101249.72;5055400;28;20204;-78
2022/06/07 10:39:56;;;;;;;0.50;0.50;;;;;;;21.50;38.72;101213.91;5054927;28;20229;-74
2022/06/07 10:42:36;;;;;;;1.30;0.60;;;;;;;21.54;40.50;101230.56;5053985;28;20205;-74
2022/06/07 10:45:14;;;;;;;1.23;0.50;;;;;;;21.68;41.10;101188.16;5053808;28;20216;-78
2022/06/07 10:47:49;;;;;;;1.47;0.50;;;;;;;21.91;41.06;101207.34;5055310;28;20207;-77
2022/06/07 10:50:20;;;;;;;0.83;0.57;;;;;;;22.16;39.66;101206.84;5053766;28;20662;-72
2022/06/07 10:52:55;;;;;;;0.40;0.40;;;;;;;22.07;38.21;101224.19;5053490;28;20220;-73
2022/06/07 10:55:29;;;;;;;0.93;0.50;;;;;;;22.15;38.74;101248.53;5054175;28;20224;-73
2022/06/07 10:58:04;;;;;;;1.57;0.67;;;;;;;22.03;39.51;101246.56;5053967;28;20189;-73
2022/06/07 11:00:36;;;;;;;0.93;0.70;;;;;;;21.89;39.67;101204.75;5045786;28;20559;-73
2022/06/07 11:03:19;;;;;;;1.33;0.70;;;;;;;22.08;40.35;101195.78;5053835;28;20663;-73
2022/06/07 11:11:24;;;;;;;1.13;0.70;;;;;;;22.29;38.04;101197.28;5053537;28;20236;-73
2022/06/07 11:14:05;;;;;;;0.70;0.67;;;;;;;22.19;39.62;101236.78;5053343;28;20256;-73
2022/06/07 11:16:38;;;;;;;0.80;0.80;;;;;;;22.24;39.51;101201.09;5053161;28;20290;-73
2022/06/07 11:19:06;;;;;;;0.70;0.70;;;;;;;22.20;38.56;101201.28;5053453;28;20209;-73
2022/06/07 11:21:36;;;;;;;1.20;0.60;;;;;;;22.40;37.56;101154.13;5053558;28;20201;-73
2022/06/07 11:24:17;;;;;;;1.83;0.80;;;;;;;22.50;38.23;101221.84;5053349;28;20609;-73
2022/06/07 11:27:15;;;;;;;1.77;0.80;;;;;;;22.62;37.83;101214.97;5045458;28;20201;-73
2022/06/07 11:29:42;;;;;;;0.90;0.73;;;;;;;22.37;37.04;101207.50;5052716;28;20212;-73
2022/06/07 11:32:40;;;;;;;1.77;1.00;;;;;;;22.74;37.13;101208.91;5053090;28;20225;-73
2022/06/07 11:35:41;;;;;;;1.27;0.87;;;;;;;23.62;37.27;101225.06;5052577;28;20236;-74
2022/06/07 11:38:25;;;;;;;2.57;0.80;;;;;;;24.98;34.63;101206.63;5045975;28;20209;-75
2022/06/07 11:41:36;;;;;;;2.30;1.00;;;;;;;26.08;33.32;101293.59;5044904;28;20190;-74
2022/06/07 11:43:57;;;;;;;1.27;0.87;;;;;;;24.84;34.48;101319.72;5051556;28;20209;-71
2022/06/07 11:46:28;;;;;;;1.17;0.90;;;;;;;25.15;33.50;101277.63;5049243;28;20225;-76
2022/06/07 11:48:54;;;;;;;1.10;0.77;;;;;;;25.46;33.45;101294.31;5044409;28;20609;-75
2022/06/07 11:51:22;;;;;;;0.73;0.73;;;;;;;25.16;34.05;101320.28;5052429;28;20201;-74
2022/06/07 11:54:02;;;;;;;2.40;0.90;;;;;;;25.29;34.69;101295.44;5052263;28;20221;-75
2022/06/07 11:56:34;;;;;;;1.37;0.80;;;;;;;24.33;35.89;101285.56;5052226;28;20310;-74
2022/06/07 11:59:04;;;;;;;1.60;0.70;;;;;;;24.02;36.65;101235.09;5042911;28;20196;-75
2022/06/07 12:01:41;;;;;;;1.23;0.87;;;;;;;24.79;35.60;101199.00;5050151;28;20255;-75